CheckWX is a tool to help pilots better visualize weather data.  It is not intended as a substitute for an official pre-flight weather briefing.

13:00:31 UTC

KJOT METAR
Joliet Regional Airport
Joliet, Illinois, USA
Current

26 mins ago

KJOT 171235Z AUTO 16003KT 10SM CLR M02/M02 A3010 RMK AO2 T10211022
Observed
Nov-17 @ 12:35 UTC
Wind
  • 160° at 3 KTS
Visibility
10 SM
Flight Rules
VFR
Cloud Levels
  • Clear skies
Temperature
-2°C / 28°F
Dewpoint
-2°C / 28°F
Humidity
100%
Altimeter
30.1" Hg
Pressure
1019.32 hPa
Previous

46 mins ago

KJOT 171215Z AUTO 15005KT 10SM CLR M02/M02 A3010 RMK AO2 T10201021
Observed
Nov-17 @ 12:15 UTC
Wind
  • 150° at 5 KTS
Visibility
10 SM
Flight Rules
VFR
Cloud Levels
  • Clear skies
Temperature
-2°C / 28°F
Dewpoint
-2°C / 28°F
Humidity
100%
Altimeter
30.1" Hg
Pressure
1019.32 hPa
Previous

1 hour ago

KJOT 171155Z AUTO 14004KT 10SM CLR M02/M02 A3011 RMK AO2 T10211022 11003 21021
Observed
Nov-17 @ 11:55 UTC
Wind
  • 140° at 4 KTS
Visibility
10 SM
Flight Rules
VFR
Cloud Levels
  • Clear skies
Temperature
-2°C / 28°F
Dewpoint
-2°C / 28°F
Humidity
100%
Altimeter
30.11" Hg
Pressure
1019.62 hPa